AFL5011 URSS-UUEE
Flight info
| Callsign | AFL5011 |
|---|---|
| Flight time | N/A |
| Altitude | 38000 |
| Route | IRGID1D IRGID A944 BEMES R227 KZ DCT MOMER DCT GOLMA N50 OLOPI OLOPI3F |
| Aircraft | A321/M-SDFGJ1IYRW/LB1 |
Departure
| Time | N/A |
|---|---|
| Airport | Sochi International Airport (URSS) |
Arrival
| Time | 2026-04-30 19:38 |
|---|---|
| Airport | Sheremetyevo International Airport (UUEE) |
| Time | Latitude | Longitude | Altitude | Speed | Heading |
|---|---|---|---|---|---|
| 2026-04-30 17:39 | 44.12137 | 47.08526 | 37158 ft | 517 kts | 39° |
| 2026-04-30 17:42 | 44.38324 | 47.42910 | 37158 ft | 517 kts | 39° |
| 2026-04-30 17:42 | 44.46389 | 47.52711 | 37164 ft | 508 kts | 25° |
| 2026-04-30 17:43 | 44.52810 | 47.56337 | 37162 ft | 491 kts | 5° |
| 2026-04-30 17:44 | 44.62673 | 47.56118 | 37158 ft | 466 kts | 341° |
| 2026-04-30 17:44 | 44.72196 | 47.53287 | 37157 ft | 467 kts | 341° |
| 2026-04-30 17:47 | 45.00798 | 47.44762 | 37148 ft | 468 kts | 341° |
| 2026-04-30 17:48 | 45.23141 | 47.38081 | 37146 ft | 470 kts | 341° |
| 2026-04-30 17:50 | 45.48668 | 47.30345 | 37152 ft | 470 kts | 341° |
| 2026-04-30 17:52 | 45.67610 | 47.23731 | 37141 ft | 456 kts | 327° |
| 2026-04-30 17:54 | 45.93225 | 47.05685 | 37139 ft | 456 kts | 326° |
| 2026-04-30 17:56 | 46.14595 | 46.89067 | 37148 ft | 457 kts | 324° |
| 2026-04-30 17:58 | 46.31793 | 46.76809 | 37152 ft | 462 kts | 329° |
| 2026-04-30 18:00 | 46.55052 | 46.61064 | 37155 ft | 461 kts | 328° |
| 2026-04-30 18:01 | 46.69585 | 46.51133 | 37159 ft | 461 kts | 328° |
| 2026-04-30 18:02 | 46.86990 | 46.39111 | 37161 ft | 463 kts | 328° |
| 2026-04-30 18:04 | 47.04454 | 46.26955 | 37166 ft | 464 kts | 328° |
| 2026-04-30 18:06 | 47.27796 | 46.10549 | 37162 ft | 466 kts | 328° |
| 2026-04-30 18:08 | 47.48261 | 45.96073 | 37171 ft | 466 kts | 328° |
| 2026-04-30 18:10 | 47.71664 | 45.79422 | 37173 ft | 466 kts | 328° |
| 2026-04-30 18:11 | 47.92099 | 45.64704 | 37171 ft | 468 kts | 328° |
| 2026-04-30 18:13 | 48.06756 | 45.54092 | 37172 ft | 468 kts | 328° |
| 2026-04-30 18:14 | 48.21418 | 45.43401 | 37169 ft | 470 kts | 328° |
| 2026-04-30 18:15 | 48.39067 | 45.30411 | 37171 ft | 468 kts | 326° |
| 2026-04-30 18:16 | 48.49399 | 45.18887 | 37168 ft | 462 kts | 317° |
| 2026-04-30 18:17 | 48.54473 | 45.12942 | 37179 ft | 462 kts | 317° |
| 2026-04-30 18:18 | 48.62047 | 45.04053 | 37167 ft | 462 kts | 317° |
| 2026-04-30 18:18 | 48.67113 | 44.98080 | 37167 ft | 462 kts | 317° |
| 2026-04-30 18:19 | 48.72180 | 44.92098 | 37182 ft | 462 kts | 317° |
| 2026-04-30 18:19 | 48.77249 | 44.86103 | 37164 ft | 462 kts | 317° |
| 2026-04-30 18:20 | 48.82310 | 44.80085 | 37163 ft | 462 kts | 317° |
| 2026-04-30 18:20 | 48.87337 | 44.74004 | 37164 ft | 462 kts | 316° |
| 2026-04-30 18:21 | 48.92288 | 44.67781 | 37185 ft | 463 kts | 315° |
| 2026-04-30 18:21 | 48.97236 | 44.61508 | 37155 ft | 463 kts | 316° |
| 2026-04-30 18:22 | 49.02205 | 44.55254 | 37176 ft | 464 kts | 316° |
| 2026-04-30 18:22 | 49.09670 | 44.45859 | 37160 ft | 464 kts | 316° |
| 2026-04-30 18:23 | 49.14635 | 44.39589 | 37166 ft | 464 kts | 316° |
| 2026-04-30 18:23 | 49.19601 | 44.33296 | 37166 ft | 464 kts | 316° |
| 2026-04-30 18:24 | 49.27042 | 44.23817 | 37165 ft | 464 kts | 316° |
| 2026-04-30 18:25 | 49.31999 | 44.17487 | 37161 ft | 464 kts | 316° |
| 2026-04-30 18:25 | 49.39435 | 44.07980 | 37165 ft | 464 kts | 316° |
| 2026-04-30 18:26 | 49.46862 | 43.98430 | 37170 ft | 464 kts | 316° |
| 2026-04-30 18:27 | 49.54273 | 43.88852 | 37169 ft | 464 kts | 316° |
| 2026-04-30 18:28 | 49.61711 | 43.79285 | 37171 ft | 464 kts | 316° |
| 2026-04-30 18:28 | 49.69124 | 43.69670 | 37175 ft | 465 kts | 316° |
| 2026-04-30 18:29 | 49.79023 | 43.56781 | 37171 ft | 466 kts | 316° |
| 2026-04-30 18:30 | 49.88932 | 43.43793 | 37170 ft | 467 kts | 316° |
| 2026-04-30 18:31 | 49.96374 | 43.33992 | 37174 ft | 468 kts | 316° |
| 2026-04-30 18:32 | 50.03773 | 43.24187 | 37174 ft | 468 kts | 316° |
| 2026-04-30 18:33 | 50.11207 | 43.14337 | 37179 ft | 468 kts | 316° |
| 2026-04-30 18:33 | 50.18639 | 43.04445 | 37180 ft | 468 kts | 316° |
| 2026-04-30 18:34 | 50.26057 | 42.94523 | 37197 ft | 468 kts | 316° |
| 2026-04-30 18:34 | 50.28529 | 42.91203 | 37302 ft | 466 kts | 316° |
| 2026-04-30 18:35 | 50.30973 | 42.87916 | 37562 ft | 462 kts | 316° |
| 2026-04-30 18:35 | 50.33396 | 42.84649 | 37814 ft | 457 kts | 316° |
| 2026-04-30 18:35 | 50.35794 | 42.81413 | 38064 ft | 453 kts | 316° |
| 2026-04-30 18:36 | 50.40552 | 42.74980 | 38185 ft | 453 kts | 316° |
| 2026-04-30 18:36 | 50.42944 | 42.71743 | 38184 ft | 454 kts | 316° |
| 2026-04-30 18:37 | 50.50129 | 42.61972 | 38188 ft | 457 kts | 316° |
| 2026-04-30 18:37 | 50.55065 | 42.55657 | 38193 ft | 461 kts | 323° |
| 2026-04-30 18:38 | 50.60388 | 42.49992 | 38190 ft | 462 kts | 323° |
| 2026-04-30 18:38 | 50.64819 | 42.45255 | 38190 ft | 463 kts | 323° |
| 2026-04-30 18:39 | 50.70152 | 42.39525 | 38193 ft | 465 kts | 323° |
| 2026-04-30 18:39 | 50.75495 | 42.33766 | 38193 ft | 466 kts | 323° |
| 2026-04-30 18:40 | 50.80854 | 42.27987 | 38174 ft | 467 kts | 323° |
| 2026-04-30 18:40 | 50.86222 | 42.22181 | 38160 ft | 468 kts | 323° |
| 2026-04-30 18:41 | 50.91595 | 42.16349 | 38175 ft | 469 kts | 323° |
| 2026-04-30 18:41 | 50.96975 | 42.10502 | 38177 ft | 469 kts | 323° |
| 2026-04-30 18:42 | 51.02360 | 42.04619 | 38174 ft | 470 kts | 323° |
| 2026-04-30 18:42 | 51.10435 | 41.95763 | 38186 ft | 471 kts | 323° |
| 2026-04-30 18:45 | 51.40092 | 41.62927 | 38200 ft | 473 kts | 323° |
| 2026-04-30 18:46 | 51.45448 | 41.56939 | 38195 ft | 473 kts | 323° |
| 2026-04-30 18:46 | 51.50845 | 41.50899 | 38202 ft | 473 kts | 323° |
| 2026-04-30 18:47 | 51.56240 | 41.44842 | 38206 ft | 473 kts | 323° |
| 2026-04-30 18:47 | 51.61633 | 41.38769 | 38209 ft | 473 kts | 323° |
| 2026-04-30 18:48 | 51.67021 | 41.32658 | 38202 ft | 473 kts | 323° |
| 2026-04-30 18:48 | 51.72405 | 41.26549 | 38206 ft | 474 kts | 323° |
| 2026-04-30 18:49 | 51.77794 | 41.20416 | 38201 ft | 474 kts | 323° |
| 2026-04-30 18:49 | 51.83178 | 41.14275 | 38199 ft | 474 kts | 323° |
| 2026-04-30 18:50 | 51.88560 | 41.08128 | 38201 ft | 474 kts | 323° |
| 2026-04-30 18:50 | 51.93946 | 41.01952 | 38209 ft | 474 kts | 323° |
| 2026-04-30 18:51 | 51.99318 | 40.95774 | 38220 ft | 474 kts | 323° |
| 2026-04-30 18:51 | 52.04721 | 40.89617 | 38213 ft | 475 kts | 328° |
| 2026-04-30 18:52 | 52.10473 | 40.84349 | 38216 ft | 475 kts | 329° |
| 2026-04-30 18:52 | 52.16231 | 40.79068 | 38214 ft | 475 kts | 329° |
| 2026-04-30 18:53 | 52.21974 | 40.73754 | 38224 ft | 475 kts | 329° |
| 2026-04-30 18:53 | 52.27717 | 40.68421 | 38227 ft | 475 kts | 329° |
| 2026-04-30 18:54 | 52.33466 | 40.63077 | 38225 ft | 475 kts | 329° |
| 2026-04-30 18:54 | 52.39211 | 40.57726 | 38229 ft | 475 kts | 329° |
| 2026-04-30 18:55 | 52.44961 | 40.52366 | 38237 ft | 475 kts | 329° |
| 2026-04-30 18:55 | 52.53567 | 40.44290 | 38233 ft | 475 kts | 329° |
| 2026-04-30 18:56 | 52.62193 | 40.36235 | 38233 ft | 475 kts | 329° |
| 2026-04-30 18:57 | 52.70806 | 40.28156 | 38236 ft | 475 kts | 329° |
| 2026-04-30 18:57 | 52.76548 | 40.22753 | 38234 ft | 475 kts | 329° |
| 2026-04-30 18:58 | 52.85148 | 40.14597 | 38240 ft | 475 kts | 329° |
| 2026-04-30 18:59 | 52.93751 | 40.06432 | 38240 ft | 475 kts | 329° |
| 2026-04-30 19:00 | 53.05204 | 39.95501 | 38239 ft | 475 kts | 329° |
| 2026-04-30 19:01 | 53.16646 | 39.84492 | 38242 ft | 475 kts | 329° |
| 2026-04-30 19:02 | 53.25215 | 39.76202 | 38242 ft | 475 kts | 329° |
| 2026-04-30 19:03 | 53.36633 | 39.65078 | 38247 ft | 475 kts | 329° |
| 2026-04-30 19:04 | 53.48211 | 39.54415 | 38249 ft | 475 kts | 333° |
| 2026-04-30 19:05 | 53.59945 | 39.44786 | 37533 ft | 464 kts | 333° |
| 2026-04-30 19:05 | 53.65574 | 39.39977 | 36583 ft | 444 kts | 332° |
| 2026-04-30 19:06 | 53.70977 | 39.35327 | 35685 ft | 429 kts | 332° |
| 2026-04-30 19:06 | 53.73616 | 39.33056 | 35261 ft | 425 kts | 332° |
| 2026-04-30 19:06 | 53.78868 | 39.28537 | 34441 ft | 420 kts | 332° |
| 2026-04-30 19:07 | 53.84011 | 39.24108 | 33522 ft | 405 kts | 332° |
| 2026-04-30 19:07 | 53.86482 | 39.21980 | 33053 ft | 402 kts | 332° |
| 2026-04-30 19:08 | 53.91433 | 39.17702 | 32218 ft | 395 kts | 332° |
| 2026-04-30 19:08 | 53.96227 | 39.13541 | 31480 ft | 381 kts | 332° |
| 2026-04-30 19:08 | 53.98579 | 39.11495 | 31142 ft | 378 kts | 332° |
| 2026-04-30 19:09 | 54.03253 | 39.07414 | 30471 ft | 377 kts | 332° |
| 2026-04-30 19:09 | 54.05591 | 39.05375 | 30101 ft | 378 kts | 332° |
| 2026-04-30 19:09 | 54.07929 | 39.03335 | 29674 ft | 378 kts | 332° |
| 2026-04-30 19:10 | 54.12726 | 38.99136 | 28537 ft | 406 kts | 332° |
| 2026-04-30 19:10 | 54.17686 | 38.94796 | 28230 ft | 398 kts | 332° |
| 2026-04-30 19:11 | 54.25043 | 38.88317 | 28231 ft | 396 kts | 333° |
| 2026-04-30 19:12 | 54.29974 | 38.84110 | 28229 ft | 397 kts | 334° |
| 2026-04-30 19:12 | 54.34853 | 38.80005 | 28234 ft | 375 kts | 333° |
| 2026-04-30 19:13 | 54.39418 | 38.76126 | 28231 ft | 363 kts | 333° |
| 2026-04-30 19:13 | 54.43931 | 38.72256 | 28223 ft | 362 kts | 334° |
| 2026-04-30 19:14 | 54.48657 | 38.69258 | 28229 ft | 360 kts | 342° |
| 2026-04-30 19:14 | 54.53399 | 38.66536 | 28234 ft | 359 kts | 342° |
| 2026-04-30 19:14 | 54.55767 | 38.65177 | 28105 ft | 359 kts | 342° |
| 2026-04-30 19:15 | 54.58177 | 38.63796 | 27646 ft | 373 kts | 342° |
| 2026-04-30 19:15 | 54.63226 | 38.60921 | 26735 ft | 384 kts | 342° |
| 2026-04-30 19:15 | 54.65763 | 38.59485 | 26292 ft | 383 kts | 342° |
| 2026-04-30 19:16 | 54.68283 | 38.58046 | 25856 ft | 380 kts | 341° |
| 2026-04-30 19:16 | 54.70772 | 38.56562 | 25424 ft | 378 kts | 340° |
| 2026-04-30 19:16 | 54.75710 | 38.53516 | 24592 ft | 376 kts | 340° |
| 2026-04-30 19:17 | 54.78165 | 38.51991 | 24171 ft | 372 kts | 340° |
| 2026-04-30 19:17 | 54.82993 | 38.49003 | 23268 ft | 365 kts | 340° |
| 2026-04-30 19:17 | 54.85374 | 38.47534 | 22751 ft | 362 kts | 340° |
| 2026-04-30 19:18 | 54.88536 | 38.45590 | 21989 ft | 358 kts | 341° |
| 2026-04-30 19:18 | 54.92408 | 38.43206 | 21079 ft | 353 kts | 340° |
| 2026-04-30 19:18 | 54.94713 | 38.41782 | 20550 ft | 350 kts | 341° |
| 2026-04-30 19:19 | 54.96989 | 38.40378 | 20220 ft | 346 kts | 340° |
| 2026-04-30 19:19 | 54.99260 | 38.38973 | 20220 ft | 347 kts | 340° |
| 2026-04-30 19:19 | 55.03799 | 38.36154 | 19669 ft | 345 kts | 340° |
| 2026-04-30 19:20 | 55.06052 | 38.34751 | 19312 ft | 342 kts | 340° |
| 2026-04-30 19:20 | 55.08289 | 38.33359 | 18957 ft | 340 kts | 340° |
| 2026-04-30 19:20 | 55.12695 | 38.30617 | 18215 ft | 330 kts | 340° |
| 2026-04-30 19:21 | 55.14837 | 38.29285 | 17822 ft | 323 kts | 341° |
| 2026-04-30 19:21 | 55.18998 | 38.26693 | 17047 ft | 312 kts | 340° |
| 2026-04-30 19:22 | 55.22352 | 38.24587 | 16411 ft | 305 kts | 340° |
| 2026-04-30 19:22 | 55.28283 | 38.20853 | 15305 ft | 299 kts | 340° |
| 2026-04-30 19:23 | 55.34104 | 38.17174 | 15223 ft | 293 kts | 340° |
| 2026-04-30 19:24 | 55.37943 | 38.14749 | 15221 ft | 292 kts | 341° |
| 2026-04-30 19:24 | 55.39855 | 38.13546 | 15218 ft | 292 kts | 341° |
| 2026-04-30 19:24 | 55.43677 | 38.11129 | 15224 ft | 292 kts | 341° |
| 2026-04-30 19:25 | 55.49367 | 38.07516 | 14108 ft | 287 kts | 340° |
| 2026-04-30 19:26 | 55.53104 | 38.05128 | 13169 ft | 284 kts | 340° |
| 2026-04-30 19:26 | 55.56791 | 38.02773 | 12126 ft | 279 kts | 340° |
| 2026-04-30 19:26 | 55.58585 | 38.01629 | 11592 ft | 270 kts | 340° |
| 2026-04-30 19:27 | 55.62054 | 37.99415 | 10555 ft | 261 kts | 340° |
| 2026-04-30 19:27 | 55.65428 | 37.97245 | 9501 ft | 257 kts | 340° |
| 2026-04-30 19:28 | 55.67115 | 37.96159 | 8968 ft | 259 kts | 340° |
| 2026-04-30 19:28 | 55.70445 | 37.94007 | 7928 ft | 246 kts | 340° |
| 2026-04-30 19:29 | 55.73619 | 37.91965 | 6935 ft | 240 kts | 340° |
| 2026-04-30 19:29 | 55.75180 | 37.90958 | 6432 ft | 240 kts | 340° |
| 2026-04-30 19:30 | 55.79865 | 37.87932 | 4902 ft | 246 kts | 340° |
| 2026-04-30 19:30 | 55.83156 | 37.85806 | 3877 ft | 252 kts | 340° |
| 2026-04-30 19:31 | 55.86441 | 37.83672 | 3033 ft | 248 kts | 340° |
| 2026-04-30 19:31 | 55.88044 | 37.82632 | 2998 ft | 236 kts | 340° |
| 2026-04-30 19:31 | 55.90769 | 37.80858 | 3025 ft | 189 kts | 340° |
| 2026-04-30 19:32 | 55.91975 | 37.80072 | 3009 ft | 182 kts | 340° |
| 2026-04-30 19:32 | 55.93150 | 37.79306 | 3020 ft | 177 kts | 340° |
| 2026-04-30 19:32 | 55.94279 | 37.78569 | 3010 ft | 174 kts | 340° |
| 2026-04-30 19:32 | 55.95425 | 37.77821 | 3008 ft | 173 kts | 340° |
| 2026-04-30 19:33 | 55.96538 | 37.77096 | 3008 ft | 173 kts | 340° |
| 2026-04-30 19:33 | 55.97665 | 37.76360 | 3007 ft | 172 kts | 340° |
| 2026-04-30 19:33 | 55.98793 | 37.75624 | 3010 ft | 173 kts | 339° |
| 2026-04-30 19:33 | 55.99875 | 37.74701 | 3011 ft | 173 kts | 325° |
| 2026-04-30 19:34 | 56.00727 | 37.73188 | 2602 ft | 175 kts | 305° |
| 2026-04-30 19:34 | 56.01179 | 37.71239 | 2453 ft | 171 kts | 282° |
| 2026-04-30 19:34 | 56.00914 | 37.67062 | 2490 ft | 159 kts | 256° |
| 2026-04-30 19:35 | 56.00633 | 37.65146 | 2495 ft | 160 kts | 256° |
| 2026-04-30 19:35 | 56.00351 | 37.63219 | 2500 ft | 160 kts | 256° |
| 2026-04-30 19:35 | 56.00068 | 37.61296 | 2497 ft | 160 kts | 256° |
| 2026-04-30 19:35 | 55.99784 | 37.59368 | 2384 ft | 160 kts | 256° |
| 2026-04-30 19:36 | 55.99506 | 37.57483 | 2190 ft | 150 kts | 256° |
| 2026-04-30 19:36 | 55.99248 | 37.55732 | 1999 ft | 142 kts | 256° |
| 2026-04-30 19:36 | 55.98753 | 37.52378 | 1611 ft | 138 kts | 256° |
| 2026-04-30 19:37 | 55.98509 | 37.50729 | 1407 ft | 137 kts | 256° |
| 2026-04-30 19:37 | 55.98266 | 37.49088 | 1217 ft | 136 kts | 256° |
| 2026-04-30 19:37 | 55.98026 | 37.47466 | 1034 ft | 135 kts | 256° |
| 2026-04-30 19:37 | 55.97788 | 37.45835 | 826 ft | 135 kts | 256° |
| 2026-04-30 19:38 | 55.97551 | 37.44219 | 677 ft | 134 kts | 255° |
| 2026-04-30 19:38 | 55.97322 | 37.42680 | 635 ft | 117 kts | 255° |
| 2026-04-30 19:38 | 55.97153 | 37.41576 | 631 ft | 67 kts | 255° |
| 2026-04-30 19:38 | 55.97071 | 37.41021 | 633 ft | 39 kts | 256° |
| 2026-04-30 19:39 | 55.97000 | 37.40555 | 631 ft | 39 kts | 255° |
| 2026-04-30 19:39 | 55.96944 | 37.40135 | 631 ft | 21 kts | 273° |
| 2026-04-30 19:39 | 55.97041 | 37.40017 | 635 ft | 10 kts | 344° |
| 2026-04-30 19:39 | 55.97043 | 37.40016 | 630 ft | 0 kts | 344° |
| 2026-04-30 19:40 | 55.97049 | 37.40013 | 630 ft | 6 kts | 344° |
| 2026-04-30 19:40 | 55.97170 | 37.39954 | 629 ft | 28 kts | 345° |
| 2026-04-30 19:40 | 55.97356 | 37.39868 | 629 ft | 18 kts | 345° |
| 2026-04-30 19:40 | 55.97461 | 37.39917 | 632 ft | 16 kts | 56° |
| 2026-04-30 19:41 | 55.97493 | 37.40090 | 633 ft | 3 kts | 74° |
| 2026-04-30 19:41 | 55.97493 | 37.40091 | 633 ft | 0 kts | 74° |
| 2026-04-30 19:43 | 55.97494 | 37.40097 | 632 ft | 3 kts | 74° |
| 2026-04-30 19:43 | 55.97505 | 37.40173 | 634 ft | 7 kts | 74° |
| 2026-04-30 19:43 | 55.97507 | 37.40180 | 633 ft | 0 kts | 74° |
| 2026-04-30 19:44 | 55.97540 | 37.40401 | 631 ft | 21 kts | 75° |
| 2026-04-30 19:44 | 55.97569 | 37.40592 | 632 ft | 7 kts | 75° |
| 2026-04-30 19:44 | 55.97576 | 37.40605 | 634 ft | 1 kts | 37° |
| 2026-04-30 19:44 | 55.97604 | 37.40617 | 635 ft | 11 kts | 348° |
| 2026-04-30 19:45 | 55.97696 | 37.40582 | 636 ft | 13 kts | 345° |
| 2026-04-30 19:45 | 55.97762 | 37.40548 | 633 ft | 6 kts | 335° |
| 2026-04-30 19:45 | 55.97783 | 37.40540 | 639 ft | 0 kts | 341° |